Terminal Aerodrome Forecast
Issued by NWS St Louis, MO

Home | Current Version | Previous Version | Text Only | Print | Product List | Glossary On
Versions: 1 2 3 4 5 6 7 8 9 10 11 12 13 14 15 16 17 18 19 20 21
000
FTUS43 KLSX 101100
TAFSTL
TAF
KSTL 101120Z 1012/1118 VRB04KT P6SM SCT250
     FM101500 09007KT P6SM SCT250
     FM110600 14007KT P6SM BKN250
     FM111500 17010KT P6SM SCT100=

USA.gov is the U.S. government's official web portal to all federal, state and local government web resources and services.